sensor_id;sensor_type;location;lat;lon;timestamp;P1;durP1;ratioP1;P2;durP2;ratioP2
32228;SDS011;18717;48.034;11.186;2023-04-15T00:01:43;11.88;;;8.68;;
32228;SDS011;18717;48.034;11.186;2023-04-15T00:04:10;9.82;;;8.93;;
32228;SDS011;18717;48.034;11.186;2023-04-15T00:06:38;8.57;;;8.02;;
32228;SDS011;18717;48.034;11.186;2023-04-15T00:09:07;8.60;;;8.00;;
32228;SDS011;18717;48.034;11.186;2023-04-15T00:11:34;8.82;;;8.02;;
32228;SDS011;18717;48.034;11.186;2023-04-15T00:14:02;9.57;;;8.88;;
32228;SDS011;18717;48.034;11.186;2023-04-15T00:16:29;12.20;;;8.75;;
32228;SDS011;18717;48.034;11.186;2023-04-15T00:18:59;9.55;;;8.75;;
32228;SDS011;18717;48.034;11.186;2023-04-15T00:21:27;11.98;;;9.38;;
32228;SDS011;18717;48.034;11.186;2023-04-15T00:23:54;9.43;;;8.57;;
32228;SDS011;18717;48.034;11.186;2023-04-15T00:26:22;11.50;;;8.65;;
32228;SDS011;18717;48.034;11.186;2023-04-15T00:28:50;9.13;;;8.27;;
32228;SDS011;18717;48.034;11.186;2023-04-15T00:31:18;9.48;;;8.63;;
32228;SDS011;18717;48.034;11.186;2023-04-15T00:33:46;9.75;;;8.75;;
32228;SDS011;18717;48.034;11.186;2023-04-15T00:36:16;9.77;;;8.90;;
32228;SDS011;18717;48.034;11.186;2023-04-15T00:38:43;10.27;;;9.23;;
32228;SDS011;18717;48.034;11.186;2023-04-15T00:41:11;9.35;;;8.55;;
32228;SDS011;18717;48.034;11.186;2023-04-15T00:43:39;9.77;;;8.82;;
32228;SDS011;18717;48.034;11.186;2023-04-15T00:46:07;10.07;;;9.18;;
32228;SDS011;18717;48.034;11.186;2023-04-15T00:48:35;10.63;;;8.85;;
32228;SDS011;18717;48.034;11.186;2023-04-15T00:51:04;11.55;;;9.10;;
32228;SDS011;18717;48.034;11.186;2023-04-15T00:53:33;11.52;;;8.98;;
32228;SDS011;18717;48.034;11.186;2023-04-15T00:56:01;10.18;;;8.95;;
32228;SDS011;18717;48.034;11.186;2023-04-15T00:58:29;9.15;;;8.25;;
32228;SDS011;18717;48.034;11.186;2023-04-15T01:00:56;9.38;;;8.68;;
32228;SDS011;18717;48.034;11.186;2023-04-15T01:03:25;9.52;;;8.60;;
32228;SDS011;18717;48.034;11.186;2023-04-15T01:05:53;9.32;;;8.43;;
32228;SDS011;18717;48.034;11.186;2023-04-15T01:08:25;8.95;;;7.97;;
32228;SDS011;18717;48.034;11.186;2023-04-15T01:10:55;9.80;;;8.77;;
32228;SDS011;18717;48.034;11.186;2023-04-15T01:13:23;9.50;;;8.82;;
32228;SDS011;18717;48.034;11.186;2023-04-15T01:15:51;9.40;;;8.57;;
32228;SDS011;18717;48.034;11.186;2023-04-15T01:18:19;12.20;;;8.73;;
32228;SDS011;18717;48.034;11.186;2023-04-15T01:20:48;8.93;;;8.07;;
32228;SDS011;18717;48.034;11.186;2023-04-15T01:23:16;9.40;;;8.50;;
32228;SDS011;18717;48.034;11.186;2023-04-15T01:25:45;10.32;;;9.25;;
32228;SDS011;18717;48.034;11.186;2023-04-15T01:28:13;13.60;;;8.90;;
32228;SDS011;18717;48.034;11.186;2023-04-15T01:30:40;9.55;;;8.68;;
32228;SDS011;18717;48.034;11.186;2023-04-15T01:33:08;9.35;;;8.45;;
32228;SDS011;18717;48.034;11.186;2023-04-15T01:35:38;10.38;;;9.18;;
32228;SDS011;18717;48.034;11.186;2023-04-15T01:38:07;10.65;;;9.52;;
32228;SDS011;18717;48.034;11.186;2023-04-15T01:40:35;10.63;;;9.63;;
32228;SDS011;18717;48.034;11.186;2023-04-15T01:43:05;13.25;;;8.63;;
32228;SDS011;18717;48.034;11.186;2023-04-15T01:45:32;10.23;;;9.32;;
32228;SDS011;18717;48.034;11.186;2023-04-15T01:48:00;9.27;;;8.18;;
32228;SDS011;18717;48.034;11.186;2023-04-15T01:50:28;9.15;;;8.27;;
32228;SDS011;18717;48.034;11.186;2023-04-15T01:52:55;8.68;;;8.07;;
32228;SDS011;18717;48.034;11.186;2023-04-15T01:55:23;9.70;;;7.95;;
32228;SDS011;18717;48.034;11.186;2023-04-15T01:57:51;9.38;;;8.48;;
32228;SDS011;18717;48.034;11.186;2023-04-15T02:00:20;13.13;;;8.93;;
32228;SDS011;18717;48.034;11.186;2023-04-15T02:02:48;11.07;;;9.25;;
32228;SDS011;18717;48.034;11.186;2023-04-15T02:05:16;10.40;;;8.65;;
32228;SDS011;18717;48.034;11.186;2023-04-15T02:07:44;9.73;;;8.52;;
32228;SDS011;18717;48.034;11.186;2023-04-15T02:10:11;9.82;;;8.93;;
32228;SDS011;18717;48.034;11.186;2023-04-15T02:12:39;11.35;;;8.35;;
32228;SDS011;18717;48.034;11.186;2023-04-15T02:15:07;8.82;;;8.02;;
32228;SDS011;18717;48.034;11.186;2023-04-15T02:17:37;9.05;;;8.27;;
32228;SDS011;18717;48.034;11.186;2023-04-15T02:20:06;8.25;;;7.53;;
32228;SDS011;18717;48.034;11.186;2023-04-15T02:22:35;10.02;;;9.20;;
32228;SDS011;18717;48.034;11.186;2023-04-15T02:25:03;10.65;;;9.55;;
32228;SDS011;18717;48.034;11.186;2023-04-15T02:27:32;9.25;;;7.90;;
32228;SDS011;18717;48.034;11.186;2023-04-15T02:29:59;9.23;;;8.63;;
32228;SDS011;18717;48.034;11.186;2023-04-15T02:32:27;10.85;;;8.25;;
32228;SDS011;18717;48.034;11.186;2023-04-15T02:34:58;8.68;;;7.85;;
32228;SDS011;18717;48.034;11.186;2023-04-15T02:37:29;9.25;;;8.43;;
32228;SDS011;18717;48.034;11.186;2023-04-15T02:39:57;13.85;;;9.25;;
32228;SDS011;18717;48.034;11.186;2023-04-15T02:42:25;8.32;;;7.80;;
32228;SDS011;18717;48.034;11.186;2023-04-15T02:44:54;9.18;;;8.32;;
32228;SDS011;18717;48.034;11.186;2023-04-15T02:47:22;9.25;;;8.52;;
32228;SDS011;18717;48.034;11.186;2023-04-15T02:49:50;9.10;;;8.23;;
32228;SDS011;18717;48.034;11.186;2023-04-15T02:52:19;9.88;;;8.95;;
32228;SDS011;18717;48.034;11.186;2023-04-15T02:54:47;11.57;;;8.77;;
32228;SDS011;18717;48.034;11.186;2023-04-15T02:57:15;9.10;;;8.32;;
32228;SDS011;18717;48.034;11.186;2023-04-15T02:59:42;8.93;;;7.63;;
32228;SDS011;18717;48.034;11.186;2023-04-15T03:02:10;9.32;;;8.52;;
32228;SDS011;18717;48.034;11.186;2023-04-15T03:04:38;10.25;;;8.43;;
32228;SDS011;18717;48.034;11.186;2023-04-15T03:07:06;8.55;;;8.00;;
32228;SDS011;18717;48.034;11.186;2023-04-15T03:09:35;9.80;;;8.57;;
32228;SDS011;18717;48.034;11.186;2023-04-15T03:12:04;8.97;;;7.60;;
32228;SDS011;18717;48.034;11.186;2023-04-15T03:14:32;8.90;;;8.10;;
32228;SDS011;18717;48.034;11.186;2023-04-15T03:17:00;8.95;;;8.25;;
32228;SDS011;18717;48.034;11.186;2023-04-15T03:19:28;11.38;;;8.15;;
32228;SDS011;18717;48.034;11.186;2023-04-15T03:21:55;8.60;;;7.75;;
32228;SDS011;18717;48.034;11.186;2023-04-15T03:24:23;11.35;;;8.57;;
32228;SDS011;18717;48.034;11.186;2023-04-15T03:26:52;8.38;;;7.60;;
32228;SDS011;18717;48.034;11.186;2023-04-15T03:29:20;8.80;;;8.00;;
32228;SDS011;18717;48.034;11.186;2023-04-15T03:31:47;8.63;;;7.72;;
32228;SDS011;18717;48.034;11.186;2023-04-15T03:34:15;9.18;;;8.35;;
32228;SDS011;18717;48.034;11.186;2023-04-15T03:36:43;8.65;;;7.80;;
32228;SDS011;18717;48.034;11.186;2023-04-15T03:39:11;10.13;;;8.63;;
32228;SDS011;18717;48.034;11.186;2023-04-15T03:41:38;8.65;;;8.02;;
32228;SDS011;18717;48.034;11.186;2023-04-15T03:44:07;8.32;;;7.60;;
32228;SDS011;18717;48.034;11.186;2023-04-15T03:46:35;8.57;;;7.57;;
32228;SDS011;18717;48.034;11.186;2023-04-15T03:49:03;12.20;;;7.45;;
32228;SDS011;18717;48.034;11.186;2023-04-15T03:51:32;8.20;;;7.60;;
32228;SDS011;18717;48.034;11.186;2023-04-15T03:54:00;8.32;;;7.72;;
32228;SDS011;18717;48.034;11.186;2023-04-15T03:56:28;8.75;;;8.15;;
32228;SDS011;18717;48.034;11.186;2023-04-15T03:58:56;9.35;;;7.75;;
32228;SDS011;18717;48.034;11.186;2023-04-15T04:01:25;9.18;;;8.45;;
32228;SDS011;18717;48.034;11.186;2023-04-15T04:03:53;11.15;;;7.55;;
32228;SDS011;18717;48.034;11.186;2023-04-15T04:06:21;11.13;;;8.23;;
32228;SDS011;18717;48.034;11.186;2023-04-15T04:08:49;10.43;;;7.75;;
32228;SDS011;18717;48.034;11.186;2023-04-15T04:11:16;8.20;;;7.45;;
32228;SDS011;18717;48.034;11.186;2023-04-15T04:13:44;8.18;;;7.57;;
32228;SDS011;18717;48.034;11.186;2023-04-15T04:16:12;10.30;;;7.57;;
32228;SDS011;18717;48.034;11.186;2023-04-15T04:18:41;9.27;;;7.53;;
32228;SDS011;18717;48.034;11.186;2023-04-15T04:21:09;8.70;;;7.85;;
32228;SDS011;18717;48.034;11.186;2023-04-15T04:23:37;8.68;;;7.97;;
32228;SDS011;18717;48.034;11.186;2023-04-15T04:26:04;7.75;;;6.95;;
32228;SDS011;18717;48.034;11.186;2023-04-15T04:28:32;7.68;;;7.07;;
32228;SDS011;18717;48.034;11.186;2023-04-15T04:31:01;10.35;;;7.88;;
32228;SDS011;18717;48.034;11.186;2023-04-15T04:33:29;9.55;;;8.45;;
32228;SDS011;18717;48.034;11.186;2023-04-15T04:35:58;7.53;;;7.03;;
32228;SDS011;18717;48.034;11.186;2023-04-15T04:38:25;8.95;;;7.05;;
32228;SDS011;18717;48.034;11.186;2023-04-15T04:40:53;12.65;;;7.47;;
32228;SDS011;18717;48.034;11.186;2023-04-15T04:43:21;7.65;;;7.05;;
32228;SDS011;18717;48.034;11.186;2023-04-15T04:45:48;7.15;;;6.53;;
32228;SDS011;18717;48.034;11.186;2023-04-15T04:48:16;7.78;;;7.13;;
32228;SDS011;18717;48.034;11.186;2023-04-15T04:50:45;7.97;;;7.38;;
32228;SDS011;18717;48.034;11.186;2023-04-15T04:53:14;8.32;;;7.53;;
32228;SDS011;18717;48.034;11.186;2023-04-15T04:55:43;7.88;;;7.18;;
32228;SDS011;18717;48.034;11.186;2023-04-15T04:58:10;9.48;;;7.30;;
32228;SDS011;18717;48.034;11.186;2023-04-15T05:00:38;8.45;;;7.75;;
32228;SDS011;18717;48.034;11.186;2023-04-15T05:03:07;7.93;;;7.15;;
32228;SDS011;18717;48.034;11.186;2023-04-15T05:05:35;7.55;;;7.15;;
32228;SDS011;18717;48.034;11.186;2023-04-15T05:08:04;8.15;;;7.40;;
32228;SDS011;18717;48.034;11.186;2023-04-15T05:10:33;8.07;;;7.38;;
32228;SDS011;18717;48.034;11.186;2023-04-15T05:13:01;8.18;;;7.55;;
32228;SDS011;18717;48.034;11.186;2023-04-15T05:15:29;7.78;;;7.30;;
32228;SDS011;18717;48.034;11.186;2023-04-15T05:17:57;8.00;;;7.38;;
32228;SDS011;18717;48.034;11.186;2023-04-15T05:20:25;8.55;;;7.85;;
32228;SDS011;18717;48.034;11.186;2023-04-15T05:22:52;7.88;;;7.30;;
32228;SDS011;18717;48.034;11.186;2023-04-15T05:25:20;7.95;;;7.32;;
32228;SDS011;18717;48.034;11.186;2023-04-15T05:27:49;13.68;;;7.47;;
32228;SDS011;18717;48.034;11.186;2023-04-15T05:30:17;12.23;;;8.18;;
32228;SDS011;18717;48.034;11.186;2023-04-15T05:32:45;12.30;;;8.98;;
32228;SDS011;18717;48.034;11.186;2023-04-15T05:35:13;15.75;;;11.15;;
32228;SDS011;18717;48.034;11.186;2023-04-15T05:37:41;9.73;;;8.93;;
32228;SDS011;18717;48.034;11.186;2023-04-15T05:40:09;9.27;;;8.43;;
32228;SDS011;18717;48.034;11.186;2023-04-15T05:42:37;10.55;;;8.88;;
32228;SDS011;18717;48.034;11.186;2023-04-15T05:45:06;9.18;;;8.27;;
32228;SDS011;18717;48.034;11.186;2023-04-15T05:47:34;8.98;;;7.30;;
32228;SDS011;18717;48.034;11.186;2023-04-15T05:50:02;10.50;;;7.20;;
32228;SDS011;18717;48.034;11.186;2023-04-15T05:52:30;8.13;;;7.57;;
32228;SDS011;18717;48.034;11.186;2023-04-15T05:54:58;8.45;;;7.63;;
32228;SDS011;18717;48.034;11.186;2023-04-15T05:57:26;11.85;;;8.90;;
32228;SDS011;18717;48.034;11.186;2023-04-15T05:59:53;8.77;;;8.02;;
32228;SDS011;18717;48.034;11.186;2023-04-15T06:02:23;8.60;;;8.10;;
32228;SDS011;18717;48.034;11.186;2023-04-15T06:04:52;8.20;;;7.70;;
32228;SDS011;18717;48.034;11.186;2023-04-15T06:07:19;8.02;;;7.50;;
32228;SDS011;18717;48.034;11.186;2023-04-15T06:09:47;9.38;;;7.97;;
32228;SDS011;18717;48.034;11.186;2023-04-15T06:12:15;8.50;;;7.90;;
32228;SDS011;18717;48.034;11.186;2023-04-15T06:14:42;7.72;;;7.07;;
32228;SDS011;18717;48.034;11.186;2023-04-15T06:17:10;11.93;;;7.28;;
32228;SDS011;18717;48.034;11.186;2023-04-15T06:19:41;8.02;;;7.32;;
32228;SDS011;18717;48.034;11.186;2023-04-15T06:22:09;8.80;;;8.15;;
32228;SDS011;18717;48.034;11.186;2023-04-15T06:24:36;11.02;;;8.20;;
32228;SDS011;18717;48.034;11.186;2023-04-15T06:27:04;9.00;;;8.30;;
32228;SDS011;18717;48.034;11.186;2023-04-15T06:29:32;8.25;;;7.60;;
32228;SDS011;18717;48.034;11.186;2023-04-15T06:32:00;8.82;;;7.47;;
32228;SDS011;18717;48.034;11.186;2023-04-15T06:34:27;8.43;;;7.80;;
32228;SDS011;18717;48.034;11.186;2023-04-15T06:36:56;7.60;;;7.10;;
32228;SDS011;18717;48.034;11.186;2023-04-15T06:39:24;8.57;;;7.72;;
32228;SDS011;18717;48.034;11.186;2023-04-15T06:41:51;8.25;;;7.40;;
32228;SDS011;18717;48.034;11.186;2023-04-15T06:44:19;7.60;;;6.95;;
32228;SDS011;18717;48.034;11.186;2023-04-15T06:46:47;10.30;;;8.75;;
32228;SDS011;18717;48.034;11.186;2023-04-15T06:49:15;9.80;;;8.50;;
32228;SDS011;18717;48.034;11.186;2023-04-15T06:51:43;14.45;;;10.13;;
32228;SDS011;18717;48.034;11.186;2023-04-15T06:54:12;10.68;;;9.25;;
32228;SDS011;18717;48.034;11.186;2023-04-15T06:56:39;13.88;;;9.65;;
32228;SDS011;18717;48.034;11.186;2023-04-15T06:59:07;16.67;;;10.52;;
32228;SDS011;18717;48.034;11.186;2023-04-15T07:01:34;8.32;;;7.65;;
32228;SDS011;18717;48.034;11.186;2023-04-15T07:04:02;10.25;;;9.23;;
32228;SDS011;18717;48.034;11.186;2023-04-15T07:06:30;14.07;;;9.65;;
32228;SDS011;18717;48.034;11.186;2023-04-15T07:08:59;10.32;;;9.52;;
32228;SDS011;18717;48.034;11.186;2023-04-15T07:11:28;9.25;;;8.35;;
32228;SDS011;18717;48.034;11.186;2023-04-15T07:13:56;7.82;;;7.25;;
32228;SDS011;18717;48.034;11.186;2023-04-15T07:16:24;8.63;;;7.90;;
32228;SDS011;18717;48.034;11.186;2023-04-15T07:18:55;10.82;;;7.25;;
32228;SDS011;18717;48.034;11.186;2023-04-15T07:21:22;8.07;;;7.57;;
32228;SDS011;18717;48.034;11.186;2023-04-15T07:23:50;8.38;;;7.75;;
32228;SDS011;18717;48.034;11.186;2023-04-15T07:26:18;7.72;;;7.30;;
32228;SDS011;18717;48.034;11.186;2023-04-15T07:28:47;7.43;;;6.93;;
32228;SDS011;18717;48.034;11.186;2023-04-15T07:31:15;8.15;;;7.55;;
32228;SDS011;18717;48.034;11.186;2023-04-15T07:33:44;8.63;;;8.02;;
32228;SDS011;18717;48.034;11.186;2023-04-15T07:36:12;8.15;;;7.47;;
32228;SDS011;18717;48.034;11.186;2023-04-15T07:38:40;8.57;;;7.85;;
32228;SDS011;18717;48.034;11.186;2023-04-15T07:41:08;7.80;;;7.35;;
32228;SDS011;18717;48.034;11.186;2023-04-15T07:43:36;7.53;;;6.93;;
32228;SDS011;18717;48.034;11.186;2023-04-15T07:46:05;8.52;;;7.68;;
32228;SDS011;18717;48.034;11.186;2023-04-15T07:48:33;7.65;;;7.10;;
32228;SDS011;18717;48.034;11.186;2023-04-15T07:51:02;8.80;;;7.90;;
32228;SDS011;18717;48.034;11.186;2023-04-15T07:53:30;8.73;;;7.93;;
32228;SDS011;18717;48.034;11.186;2023-04-15T07:55:59;8.30;;;7.53;;
32228;SDS011;18717;48.034;11.186;2023-04-15T07:58:26;7.75;;;7.30;;
32228;SDS011;18717;48.034;11.186;2023-04-15T08:00:54;7.72;;;7.13;;
32228;SDS011;18717;48.034;11.186;2023-04-15T08:03:23;8.95;;;8.25;;
32228;SDS011;18717;48.034;11.186;2023-04-15T08:05:51;8.75;;;8.15;;
32228;SDS011;18717;48.034;11.186;2023-04-15T08:08:19;9.52;;;8.25;;
32228;SDS011;18717;48.034;11.186;2023-04-15T08:10:47;9.57;;;8.70;;
32228;SDS011;18717;48.034;11.186;2023-04-15T08:13:18;8.57;;;7.80;;
32228;SDS011;18717;48.034;11.186;2023-04-15T08:15:52;9.40;;;8.63;;
32228;SDS011;18717;48.034;11.186;2023-04-15T08:18:20;8.68;;;8.07;;
32228;SDS011;18717;48.034;11.186;2023-04-15T08:20:49;9.15;;;8.43;;
32228;SDS011;18717;48.034;11.186;2023-04-15T08:23:17;9.27;;;8.48;;
32228;SDS011;18717;48.034;11.186;2023-04-15T08:25:44;9.07;;;8.40;;
32228;SDS011;18717;48.034;11.186;2023-04-15T08:28:12;9.43;;;8.73;;
32228;SDS011;18717;48.034;11.186;2023-04-15T08:30:40;9.85;;;8.90;;
32228;SDS011;18717;48.034;11.186;2023-04-15T08:33:07;9.70;;;8.70;;
32228;SDS011;18717;48.034;11.186;2023-04-15T08:35:35;9.73;;;8.88;;
32228;SDS011;18717;48.034;11.186;2023-04-15T08:38:04;9.05;;;8.38;;
32228;SDS011;18717;48.034;11.186;2023-04-15T08:40:34;10.00;;;8.98;;
32228;SDS011;18717;48.034;11.186;2023-04-15T08:43:07;11.43;;;8.25;;
32228;SDS011;18717;48.034;11.186;2023-04-15T08:45:37;9.65;;;9.05;;
32228;SDS011;18717;48.034;11.186;2023-04-15T08:48:05;10.32;;;9.50;;
32228;SDS011;18717;48.034;11.186;2023-04-15T08:50:34;9.48;;;8.70;;
32228;SDS011;18717;48.034;11.186;2023-04-15T08:53:02;9.50;;;8.80;;
32228;SDS011;18717;48.034;11.186;2023-04-15T08:55:31;9.85;;;9.25;;
32228;SDS011;18717;48.034;11.186;2023-04-15T08:58:01;9.93;;;9.23;;
32228;SDS011;18717;48.034;11.186;2023-04-15T09:00:29;10.05;;;9.15;;
32228;SDS011;18717;48.034;11.186;2023-04-15T09:02:57;9.75;;;9.15;;
32228;SDS011;18717;48.034;11.186;2023-04-15T09:05:26;9.73;;;8.85;;
32228;SDS011;18717;48.034;11.186;2023-04-15T09:07:54;10.00;;;9.10;;
32228;SDS011;18717;48.034;11.186;2023-04-15T09:10:22;11.23;;;9.30;;
32228;SDS011;18717;48.034;11.186;2023-04-15T09:12:51;9.20;;;8.40;;
32228;SDS011;18717;48.034;11.186;2023-04-15T09:15:19;10.32;;;9.45;;
32228;SDS011;18717;48.034;11.186;2023-04-15T09:17:47;9.93;;;9.23;;
32228;SDS011;18717;48.034;11.186;2023-04-15T09:20:15;10.30;;;9.40;;
32228;SDS011;18717;48.034;11.186;2023-04-15T09:22:45;10.13;;;9.23;;
32228;SDS011;18717;48.034;11.186;2023-04-15T09:25:26;10.00;;;9.40;;
32228;SDS011;18717;48.034;11.186;2023-04-15T09:28:01;10.20;;;9.50;;
32228;SDS011;18717;48.034;11.186;2023-04-15T09:30:29;10.80;;;9.70;;
32228;SDS011;18717;48.034;11.186;2023-04-15T09:32:57;11.68;;;10.65;;
32228;SDS011;18717;48.034;11.186;2023-04-15T09:35:26;10.90;;;9.95;;
32228;SDS011;18717;48.034;11.186;2023-04-15T09:38:00;10.25;;;9.55;;
32228;SDS011;18717;48.034;11.186;2023-04-15T09:40:32;11.13;;;10.18;;
32228;SDS011;18717;48.034;11.186;2023-04-15T09:43:02;13.38;;;11.38;;
32228;SDS011;18717;48.034;11.186;2023-04-15T09:45:31;10.90;;;10.00;;
32228;SDS011;18717;48.034;11.186;2023-04-15T09:48:14;10.32;;;9.32;;
32228;SDS011;18717;48.034;11.186;2023-04-15T09:50:43;10.93;;;9.90;;
32228;SDS011;18717;48.034;11.186;2023-04-15T09:53:14;11.52;;;10.52;;
32228;SDS011;18717;48.034;11.186;2023-04-15T09:55:43;10.20;;;9.30;;
32228;SDS011;18717;48.034;11.186;2023-04-15T09:58:20;10.77;;;9.73;;
32228;SDS011;18717;48.034;11.186;2023-04-15T10:00:49;10.35;;;9.55;;
32228;SDS011;18717;48.034;11.186;2023-04-15T10:03:18;10.43;;;9.50;;
32228;SDS011;18717;48.034;11.186;2023-04-15T10:05:48;10.77;;;9.73;;
32228;SDS011;18717;48.034;11.186;2023-04-15T10:08:17;10.68;;;9.85;;
32228;SDS011;18717;48.034;11.186;2023-04-15T10:10:47;10.95;;;10.32;;
32228;SDS011;18717;48.034;11.186;2023-04-15T10:13:16;12.00;;;11.05;;
32228;SDS011;18717;48.034;11.186;2023-04-15T10:15:47;12.02;;;11.07;;
32228;SDS011;18717;48.034;11.186;2023-04-15T10:18:18;11.40;;;10.30;;
32228;SDS011;18717;48.034;11.186;2023-04-15T10:20:46;11.82;;;10.77;;
32228;SDS011;18717;48.034;11.186;2023-04-15T10:23:14;10.88;;;10.07;;
32228;SDS011;18717;48.034;11.186;2023-04-15T10:25:44;11.63;;;10.73;;
32228;SDS011;18717;48.034;11.186;2023-04-15T10:28:12;11.02;;;10.23;;
32228;SDS011;18717;48.034;11.186;2023-04-15T10:30:41;11.32;;;10.43;;
32228;SDS011;18717;48.034;11.186;2023-04-15T10:33:10;12.13;;;10.95;;
32228;SDS011;18717;48.034;11.186;2023-04-15T10:35:39;11.88;;;10.88;;
32228;SDS011;18717;48.034;11.186;2023-04-15T10:41:11;14.02;;;12.77;;
32228;SDS011;18717;48.034;11.186;2023-04-15T10:43:49;13.57;;;11.38;;
32228;SDS011;18717;48.034;11.186;2023-04-15T10:46:18;11.55;;;10.80;;
32228;SDS011;18717;48.034;11.186;2023-04-15T10:48:50;10.75;;;9.82;;
32228;SDS011;18717;48.034;11.186;2023-04-15T10:51:25;11.25;;;10.48;;
32228;SDS011;18717;48.034;11.186;2023-04-15T10:53:58;11.00;;;10.05;;
32228;SDS011;18717;48.034;11.186;2023-04-15T10:56:27;12.13;;;11.25;;
32228;SDS011;18717;48.034;11.186;2023-04-15T10:58:57;11.88;;;10.73;;
32228;SDS011;18717;48.034;11.186;2023-04-15T11:13:21;12.38;;;11.40;;
32228;SDS011;18717;48.034;11.186;2023-04-15T11:15:54;13.43;;;10.67;;
32228;SDS011;18717;48.034;11.186;2023-04-15T11:18:28;12.00;;;10.85;;
32228;SDS011;18717;48.034;11.186;2023-04-15T11:20:59;11.65;;;10.73;;
32228;SDS011;18717;48.034;11.186;2023-04-15T11:23:30;12.35;;;11.13;;
32228;SDS011;18717;48.034;11.186;2023-04-15T11:25:59;12.77;;;11.55;;
32228;SDS011;18717;48.034;11.186;2023-04-15T11:28:29;12.65;;;10.95;;
32228;SDS011;18717;48.034;11.186;2023-04-15T11:30:57;11.70;;;10.68;;
32228;SDS011;18717;48.034;11.186;2023-04-15T11:33:27;12.48;;;11.43;;
32228;SDS011;18717;48.034;11.186;2023-04-15T11:35:54;12.23;;;11.27;;
32228;SDS011;18717;48.034;11.186;2023-04-15T11:38:23;12.00;;;11.02;;
32228;SDS011;18717;48.034;11.186;2023-04-15T11:40:51;12.60;;;11.13;;
32228;SDS011;18717;48.034;11.186;2023-04-15T11:43:19;11.20;;;10.50;;
32228;SDS011;18717;48.034;11.186;2023-04-15T11:45:49;12.00;;;10.88;;
32228;SDS011;18717;48.034;11.186;2023-04-15T11:48:18;12.82;;;11.52;;
32228;SDS011;18717;48.034;11.186;2023-04-15T11:50:51;13.45;;;10.85;;
32228;SDS011;18717;48.034;11.186;2023-04-15T11:53:19;13.13;;;11.50;;
32228;SDS011;18717;48.034;11.186;2023-04-15T11:55:49;13.18;;;11.45;;
32228;SDS011;18717;48.034;11.186;2023-04-15T11:58:18;13.00;;;11.77;;
32228;SDS011;18717;48.034;11.186;2023-04-15T12:00:47;16.00;;;14.32;;
32228;SDS011;18717;48.034;11.186;2023-04-15T12:03:21;13.10;;;12.00;;
32228;SDS011;18717;48.034;11.186;2023-04-15T12:06:03;12.75;;;11.52;;
32228;SDS011;18717;48.034;11.186;2023-04-15T12:11:32;14.38;;;13.10;;
32228;SDS011;18717;48.034;11.186;2023-04-15T12:14:02;13.45;;;12.15;;
32228;SDS011;18717;48.034;11.186;2023-04-15T12:16:32;13.10;;;12.00;;
32228;SDS011;18717;48.034;11.186;2023-04-15T12:19:10;12.32;;;11.30;;
32228;SDS011;18717;48.034;11.186;2023-04-15T12:21:39;13.45;;;12.02;;
32228;SDS011;18717;48.034;11.186;2023-04-15T12:24:08;15.90;;;11.75;;
32228;SDS011;18717;48.034;11.186;2023-04-15T12:26:42;11.25;;;10.45;;
32228;SDS011;18717;48.034;11.186;2023-04-15T12:29:11;13.13;;;11.93;;
32228;SDS011;18717;48.034;11.186;2023-04-15T12:31:46;12.68;;;11.45;;
32228;SDS011;18717;48.034;11.186;2023-04-15T12:34:15;12.75;;;11.57;;
32228;SDS011;18717;48.034;11.186;2023-04-15T12:36:43;17.80;;;11.55;;
32228;SDS011;18717;48.034;11.186;2023-04-15T12:39:11;12.57;;;11.32;;
32228;SDS011;18717;48.034;11.186;2023-04-15T12:41:40;13.02;;;11.70;;
32228;SDS011;18717;48.034;11.186;2023-04-15T12:44:08;12.57;;;11.00;;
32228;SDS011;18717;48.034;11.186;2023-04-15T12:46:36;12.18;;;11.15;;
32228;SDS011;18717;48.034;11.186;2023-04-15T12:49:04;13.10;;;11.95;;
32228;SDS011;18717;48.034;11.186;2023-04-15T12:51:31;13.52;;;11.57;;
32228;SDS011;18717;48.034;11.186;2023-04-15T12:53:59;12.10;;;11.13;;
32228;SDS011;18717;48.034;11.186;2023-04-15T12:56:27;11.90;;;10.85;;
32228;SDS011;18717;48.034;11.186;2023-04-15T12:58:56;12.15;;;11.18;;
32228;SDS011;18717;48.034;11.186;2023-04-15T13:01:24;13.23;;;12.13;;
32228;SDS011;18717;48.034;11.186;2023-04-15T13:03:51;12.27;;;11.25;;
32228;SDS011;18717;48.034;11.186;2023-04-15T13:06:19;12.85;;;11.65;;
32228;SDS011;18717;48.034;11.186;2023-04-15T13:08:47;11.73;;;10.88;;
32228;SDS011;18717;48.034;11.186;2023-04-15T13:11:24;10.93;;;10.13;;
32228;SDS011;18717;48.034;11.186;2023-04-15T13:13:52;11.50;;;10.68;;
32228;SDS011;18717;48.034;11.186;2023-04-15T13:16:21;12.32;;;11.32;;
32228;SDS011;18717;48.034;11.186;2023-04-15T13:18:50;12.75;;;11.60;;
32228;SDS011;18717;48.034;11.186;2023-04-15T13:21:17;11.13;;;10.32;;
32228;SDS011;18717;48.034;11.186;2023-04-15T13:23:45;11.15;;;10.45;;
32228;SDS011;18717;48.034;11.186;2023-04-15T13:26:15;11.75;;;10.65;;
32228;SDS011;18717;48.034;11.186;2023-04-15T13:28:42;12.40;;;11.50;;
32228;SDS011;18717;48.034;11.186;2023-04-15T13:31:11;11.50;;;10.80;;
32228;SDS011;18717;48.034;11.186;2023-04-15T13:33:40;12.00;;;10.95;;
32228;SDS011;18717;48.034;11.186;2023-04-15T13:36:08;10.77;;;10.07;;
32228;SDS011;18717;48.034;11.186;2023-04-15T13:38:35;11.52;;;10.57;;
32228;SDS011;18717;48.034;11.186;2023-04-15T13:41:03;12.43;;;11.13;;
32228;SDS011;18717;48.034;11.186;2023-04-15T13:43:31;11.07;;;10.40;;
32228;SDS011;18717;48.034;11.186;2023-04-15T13:45:59;12.02;;;10.90;;
32228;SDS011;18717;48.034;11.186;2023-04-15T13:48:27;11.20;;;10.40;;
32228;SDS011;18717;48.034;11.186;2023-04-15T13:50:56;11.95;;;10.95;;
32228;SDS011;18717;48.034;11.186;2023-04-15T13:53:24;10.60;;;9.88;;
32228;SDS011;18717;48.034;11.186;2023-04-15T13:56:04;11.30;;;10.43;;
32228;SDS011;18717;48.034;11.186;2023-04-15T13:58:32;11.32;;;10.43;;
32228;SDS011;18717;48.034;11.186;2023-04-15T14:01:00;12.02;;;10.98;;
32228;SDS011;18717;48.034;11.186;2023-04-15T14:03:31;10.73;;;10.07;;
32228;SDS011;18717;48.034;11.186;2023-04-15T14:06:01;10.50;;;9.80;;
32228;SDS011;18717;48.034;11.186;2023-04-15T14:08:28;11.32;;;10.63;;
32228;SDS011;18717;48.034;11.186;2023-04-15T14:10:56;11.35;;;10.13;;
32228;SDS011;18717;48.034;11.186;2023-04-15T14:13:24;10.65;;;9.85;;
32228;SDS011;18717;48.034;11.186;2023-04-15T14:15:52;10.55;;;9.82;;
32228;SDS011;18717;48.034;11.186;2023-04-15T14:18:19;10.57;;;9.77;;
32228;SDS011;18717;48.034;11.186;2023-04-15T14:20:47;11.15;;;10.15;;
32228;SDS011;18717;48.034;11.186;2023-04-15T14:23:16;10.60;;;9.82;;
32228;SDS011;18717;48.034;11.186;2023-04-15T14:25:44;12.07;;;10.73;;
32228;SDS011;18717;48.034;11.186;2023-04-15T14:28:13;11.10;;;10.30;;
32228;SDS011;18717;48.034;11.186;2023-04-15T14:30:41;10.75;;;9.70;;
32228;SDS011;18717;48.034;11.186;2023-04-15T14:33:09;11.10;;;10.07;;
32228;SDS011;18717;48.034;11.186;2023-04-15T14:35:37;10.30;;;9.70;;
32228;SDS011;18717;48.034;11.186;2023-04-15T14:38:04;11.55;;;10.55;;
32228;SDS011;18717;48.034;11.186;2023-04-15T14:40:37;10.40;;;9.57;;
32228;SDS011;18717;48.034;11.186;2023-04-15T14:43:07;11.25;;;10.50;;
32228;SDS011;18717;48.034;11.186;2023-04-15T14:45:36;10.98;;;10.18;;
32228;SDS011;18717;48.034;11.186;2023-04-15T14:48:08;11.38;;;10.57;;
32228;SDS011;18717;48.034;11.186;2023-04-15T14:50:38;11.98;;;10.27;;